Time;durP1;ratioP1;P1;durP2;ratioP2;P2;SDS_P1;SDS_P2;PMS_P1;PMS_P2;Temp;Humidity;BMP_temperature;BMP_pressure;BME280_temperature;BME280_humidity;BME280_pressure;Samples;Min_cycle;Max_cycle;Signal;HPM_P1;HPM_P2
2022/03/07 00:00:27;;;;;;;4.78;2.72;;;;;;;-0.59;53.46;98691.47;5073467;28;20036;-84
2022/03/07 00:02:54;;;;;;;9.05;2.88;;;;;;;-0.51;53.21;98690.81;5041993;28;20055;-84
2022/03/07 00:05:20;;;;;;;7.30;3.28;;;;;;;-0.52;52.88;98686.56;5040216;28;20044;-83
2022/03/07 00:07:45;;;;;;;5.97;3.40;;;;;;;-0.50;53.46;98691.69;5040107;28;20037;-84
2022/03/07 00:10:11;;;;;;;6.78;3.35;;;;;;;-0.46;53.14;98680.72;5061574;28;20033;-84
2022/03/07 00:12:37;;;;;;;5.32;3.10;;;;;;;-0.37;52.77;98682.63;5051964;28;20507;-84
2022/03/07 00:15:03;;;;;;;6.55;3.28;;;;;;;-0.36;52.80;98674.19;5056274;28;20064;-83
2022/03/07 00:17:29;;;;;;;7.72;3.33;;;;;;;-0.22;52.24;98675.38;5063284;28;20429;-84
2022/03/07 00:19:55;;;;;;;7.72;3.25;;;;;;;-0.27;52.45;98671.84;5037729;28;20064;-83
2022/03/07 00:22:21;;;;;;;7.97;3.03;;;;;;;-0.13;52.54;98672.16;5049966;28;20098;-84
2022/03/07 00:24:46;;;;;;;8.20;3.25;;;;;;;-0.16;52.16;98672.94;5020140;28;20498;-83
2022/03/07 00:27:12;;;;;;;6.25;2.50;;;;;;;0.01;52.02;98675.03;5057121;28;20090;-82
2022/03/07 00:29:38;;;;;;;7.47;3.10;;;;;;;-0.12;52.10;98674.75;5055569;28;20037;-86
2022/03/07 00:32:04;;;;;;;5.05;2.70;;;;;;;-0.19;52.18;98665.22;5048978;28;20032;-85
2022/03/07 00:34:29;;;;;;;6.47;3.03;;;;;;;-0.20;52.02;98666.06;5073872;28;20033;-85
2022/03/07 00:36:55;;;;;;;7.22;2.33;;;;;;;-0.10;51.88;98664.56;5065457;28;20051;-85
2022/03/07 00:39:21;;;;;;;3.72;2.15;;;;;;;-0.05;51.98;98662.97;5069020;28;20036;-85
2022/03/07 00:41:47;;;;;;;;;;;;;;;0.07;51.44;98662.41;5028176;28;20406;-85
2022/03/07 00:44:13;;;;;;;5.63;2.47;;;;;;;0.02;51.48;98666.53;5041049;28;19918;-85
2022/03/07 00:46:38;;;;;;;5.95;2.50;;;;;;;-0.04;52.01;98657.06;5024977;28;20044;-86
2022/03/07 00:49:04;;;;;;;6.63;2.33;;;;;;;0.10;51.19;98667.56;5046110;28;20040;-86
2022/03/07 00:51:30;;;;;;;5.90;2.58;;;;;;;0.13;51.18;98672.72;5057105;28;20036;-86
2022/03/07 00:53:55;;;;;;;5.30;2.97;;;;;;;0.04;51.33;98670.81;5075021;28;20052;-86
2022/03/07 00:56:21;;;;;;;5.47;2.40;;;;;;;-0.15;52.21;98664.47;5057977;28;20044;-86
2022/03/07 00:58:47;;;;;;;4.47;2.40;;;;;;;-0.17;52.20;98667.81;5073374;28;20063;-85
2022/03/07 01:01:14;;;;;;;6.28;2.70;;;;;;;0.08;51.62;98667.53;5046955;28;20047;-85
2022/03/07 01:03:41;;;;;;;6.78;2.60;;;;;;;-0.08;51.97;98655.28;5053740;28;20398;-86
2022/03/07 01:06:06;;;;;;;5.45;2.80;;;;;;;-0.12;52.45;98654.34;5044905;28;20049;-85
2022/03/07 01:08:32;;;;;;;5.70;2.30;;;;;;;0.02;52.23;98659.75;5029296;28;20037;-86
2022/03/07 01:10:58;;;;;;;4.35;2.42;;;;;;;-0.06;52.18;98654.47;5039586;28;20139;-85
2022/03/07 01:13:25;;;;;;;6.13;2.80;;;;;;;-0.16;52.39;98647.47;5039475;28;20524;-84
2022/03/07 01:15:51;;;;;;;5.78;2.50;;;;;;;-0.32;53.10;98645.38;5053430;28;20045;-86
2022/03/07 01:18:17;;;;;;;7.03;3.08;;;;;;;-0.33;52.91;98648.75;5048394;28;20067;-84
2022/03/07 01:20:43;;;;;;;7.25;3.05;;;;;;;-0.42;53.11;98659.59;5044432;28;20036;-84
2022/03/07 01:23:09;;;;;;;6.72;2.53;;;;;;;-0.33;53.36;98656.41;5059283;28;20041;-85
2022/03/07 01:25:34;;;;;;;4.95;2.05;;;;;;;-0.30;53.16;98656.50;5043323;28;20066;-84
2022/03/07 01:28:01;;;;;;;6.78;2.42;;;;;;;-0.20;52.86;98660.09;5073378;28;20052;-85
2022/03/07 01:30:27;;;;;;;7.75;3.13;;;;;;;-0.13;52.55;98651.78;5062625;28;20338;-84
2022/03/07 01:32:52;;;;;;;5.60;2.45;;;;;;;-0.23;53.04;98655.78;5054767;28;20119;-85
2022/03/07 01:35:18;;;;;;;5.00;2.50;;;;;;;-0.29;52.77;98648.88;5039693;28;20037;-87
2022/03/07 01:37:44;;;;;;;6.68;2.67;;;;;;;-0.32;53.27;98650.47;5038304;28;20552;-85
2022/03/07 01:40:10;;;;;;;;;;;;;;;-0.12;52.89;98653.50;5044995;28;20042;-85
2022/03/07 01:42:36;;;;;;;5.25;2.63;;;;;;;-0.31;53.25;98653.09;5093242;28;20322;-85
2022/03/07 01:45:13;;;;;;;4.38;2.53;;;;;;;-0.42;53.16;98661.28;5027193;28;20128;-85
2022/03/07 01:47:38;;;;;;;3.88;2.10;;;;;;;-0.45;53.49;98651.91;5057036;28;20037;-85
2022/03/07 01:50:06;;;;;;;7.25;2.60;;;;;;;-0.44;53.84;98655.31;5040753;28;20036;-85
2022/03/07 01:52:39;;;;;;;6.30;2.55;;;;;;;-0.40;53.98;98657.09;5038946;28;20044;-84
2022/03/07 01:55:07;;;;;;;5.18;2.80;;;;;;;-0.40;53.93;98657.09;5038910;28;20068;-85
2022/03/07 01:57:41;;;;;;;6.00;2.88;;;;;;;-0.41;54.14;98653.69;5039513;28;20040;-85
2022/03/07 02:00:14;;;;;;;5.13;2.50;;;;;;;-0.44;54.33;98652.75;5039690;28;20052;-85
2022/03/07 02:02:40;;;;;;;7.18;2.80;;;;;;;-0.36;53.87;98648.72;5045630;28;20036;-85
2022/03/07 02:05:10;;;;;;;5.05;2.40;;;;;;;-0.43;54.32;98641.75;5043260;28;20686;-85
2022/03/07 02:07:37;;;;;;;5.72;2.92;;;;;;;-0.54;54.61;98649.16;5041088;28;20040;-85
2022/03/07 02:10:05;;;;;;;6.18;2.72;;;;;;;-0.59;54.94;98651.59;5042925;28;20170;-84
2022/03/07 02:12:32;;;;;;;6.65;2.88;;;;;;;-0.58;55.14;98647.34;5025692;28;20044;-84
2022/03/07 02:14:59;;;;;;;7.55;2.53;;;;;;;-0.57;54.95;98649.06;5059475;28;20032;-84
2022/03/07 02:17:26;;;;;;;8.85;2.80;;;;;;;-0.49;54.87;98647.56;5042826;28;20036;-85
2022/03/07 02:19:52;;;;;;;5.05;2.40;;;;;;;-0.54;54.94;98654.25;5027126;28;20086;-84
2022/03/07 02:22:18;;;;;;;5.85;2.58;;;;;;;-0.57;54.83;98651.59;5035429;28;20043;-84
2022/03/07 02:24:47;;;;;;;10.27;3.72;;;;;;;-0.65;55.28;98646.31;5065921;28;20059;-84
2022/03/07 02:27:13;;;;;;;5.32;2.67;;;;;;;-0.73;54.94;98642.75;5039510;28;20132;-84
2022/03/07 02:29:39;;;;;;;9.30;2.90;;;;;;;-0.76;55.52;98647.75;5041803;28;20078;-85
2022/03/07 02:32:08;;;;;;;5.75;2.80;;;;;;;-0.65;55.56;98646.31;5075260;28;20055;-85
2022/03/07 02:34:39;;;;;;;5.80;2.63;;;;;;;-0.77;55.84;98644.34;5043354;28;20430;-83
2022/03/07 02:37:05;;;;;;;5.88;2.67;;;;;;;-0.89;56.54;98646.59;5058021;28;20069;-85
2022/03/07 02:39:40;;;;;;;5.80;2.50;;;;;;;-0.89;56.17;98645.72;5043598;28;20063;-85
2022/03/07 02:42:06;;;;;;;6.60;2.92;;;;;;;-0.84;55.90;98646.69;5074901;28;20044;-84
2022/03/07 02:44:32;;;;;;;;;;;;;;;-0.79;56.62;98647.69;5043136;28;20488;-84
2022/03/07 02:46:58;;;;;;;5.68;2.58;;;;;;;-0.83;56.02;98644.19;5042315;28;19916;-83
2022/03/07 02:49:24;;;;;;;9.15;2.75;;;;;;;-0.70;55.96;98644.50;5041426;28;20082;-83
2022/03/07 02:51:50;;;;;;;4.82;2.47;;;;;;;-0.83;56.07;98638.22;5015741;28;20042;-85
2022/03/07 02:54:15;;;;;;;7.78;3.20;;;;;;;-0.69;55.74;98643.66;5031288;28;20052;-84
2022/03/07 02:56:41;;;;;;;8.57;2.80;;;;;;;-0.73;55.65;98652.94;5012779;28;20514;-84
2022/03/07 02:59:07;;;;;;;5.88;2.67;;;;;;;-0.72;55.69;98654.66;5077376;28;20039;-84
2022/03/07 03:01:33;;;;;;;8.15;2.35;;;;;;;-0.69;55.95;98657.25;5045923;28;20041;-84
2022/03/07 03:03:58;;;;;;;5.95;2.65;;;;;;;-0.56;56.04;98651.63;5059659;28;20028;-84
2022/03/07 03:06:24;;;;;;;6.30;2.60;;;;;;;-0.62;55.65;98651.50;5049895;28;20066;-83
2022/03/07 03:08:50;;;;;;;6.22;2.60;;;;;;;-0.61;55.78;98658.31;5056254;28;20040;-84
2022/03/07 03:11:15;;;;;;;6.13;2.55;;;;;;;-0.67;56.15;98652.22;5062521;28;20032;-84
2022/03/07 03:13:41;;;;;;;8.35;2.90;;;;;;;-0.59;55.82;98654.13;5061867;28;20410;-86
2022/03/07 03:16:07;;;;;;;6.28;2.65;;;;;;;-0.60;55.96;98648.97;5046168;28;20044;-85
2022/03/07 03:18:33;;;;;;;6.43;2.80;;;;;;;-0.60;55.89;98656.63;5050451;28;20524;-83
2022/03/07 03:20:58;;;;;;;9.55;2.58;;;;;;;-0.60;56.14;98654.94;5042284;28;20036;-83
2022/03/07 03:23:24;;;;;;;6.00;2.90;;;;;;;-0.49;55.53;98649.25;5057970;28;20047;-84
2022/03/07 03:25:50;;;;;;;6.47;3.20;;;;;;;-0.54;55.93;98652.56;5057307;28;20032;-84
2022/03/07 03:28:16;;;;;;;5.47;2.47;;;;;;;-0.42;55.24;98651.97;5058263;28;20105;-84
2022/03/07 03:30:41;;;;;;;5.40;2.53;;;;;;;-0.36;55.18;98644.47;5051075;28;20086;-84
2022/03/07 03:33:07;;;;;;;4.70;2.60;;;;;;;-0.46;55.32;98650.16;5074266;28;20032;-85
2022/03/07 03:35:36;;;;;;;3.45;2.15;;;;;;;-0.34;55.13;98641.94;5049636;28;20052;-85
2022/03/07 03:38:05;;;;;;;4.88;2.28;;;;;;;-0.33;55.16;98643.66;5030136;28;20104;-85
2022/03/07 03:40:31;;;;;;;5.95;2.50;;;;;;;-0.31;54.53;98640.34;5040991;28;20063;-84
2022/03/07 03:42:57;;;;;;;5.75;2.40;;;;;;;-0.13;54.30;98639.88;5041357;28;20036;-85
2022/03/07 03:45:22;;;;;;;4.63;2.55;;;;;;;-0.01;54.26;98655.44;5047130;28;20030;-87
2022/03/07 03:47:48;;;;;;;5.15;2.63;;;;;;;-0.02;53.63;98646.06;5050480;28;20417;-87
2022/03/07 03:50:14;;;;;;;6.72;2.40;;;;;;;0.03;53.75;98653.81;5074533;28;20035;-87
2022/03/07 03:52:40;;;;;;;4.38;2.33;;;;;;;0.10;53.75;98649.72;5043126;28;20035;-82
2022/03/07 03:55:07;;;;;;;5.38;2.25;;;;;;;0.20;53.23;98646.53;5040223;28;20049;-84
2022/03/07 03:57:32;;;;;;;4.10;1.98;;;;;;;0.07;53.46;98649.66;5046412;28;20038;-78
2022/03/07 03:59:58;;;;;;;6.13;2.35;;;;;;;0.02;53.53;98639.34;5076454;28;20036;-86
2022/03/07 04:02:24;;;;;;;4.97;2.70;;;;;;;-0.14;54.12;98637.28;5060821;28;20044;-89
2022/03/07 04:04:50;;;;;;;4.32;2.20;;;;;;;-0.30;54.76;98646.28;5075094;28;20043;-90
2022/03/07 04:07:16;;;;;;;5.60;2.50;;;;;;;-0.40;54.84;98642.69;5047994;28;20119;-88
2022/03/07 04:09:41;;;;;;;5.97;3.42;;;;;;;-0.52;55.54;98648.34;5067890;28;20044;-90
2022/03/07 04:12:07;;;;;;;6.32;2.15;;;;;;;-0.55;55.88;98650.84;5064134;28;20040;-91
2022/03/07 04:14:33;;;;;;;;;;;;;;;-0.47;56.10;98647.59;5068791;28;20040;-91
2022/03/07 04:16:59;;;;;;;5.95;2.20;;;;;;;-0.53;55.65;98638.97;5041782;28;19912;-90
2022/03/07 04:19:25;;;;;;;8.85;2.47;;;;;;;-0.49;55.80;98639.06;5021665;28;20044;-90
2022/03/07 04:21:52;;;;;;;4.22;2.03;;;;;;;-0.63;56.25;98638.75;5040158;28;20037;-89
2022/03/07 04:24:18;;;;;;;5.32;2.30;;;;;;;-0.65;56.54;98638.69;5045319;28;20474;-90
2022/03/07 04:26:43;;;;;;;8.82;2.58;;;;;;;-0.63;56.11;98637.06;5060857;28;20036;-90
2022/03/07 04:29:09;;;;;;;6.80;2.35;;;;;;;-0.60;56.05;98639.66;5078287;28;20036;-90
2022/03/07 04:31:36;;;;;;;5.10;2.70;;;;;;;-0.63;56.94;98639.59;5061626;28;20433;-91
2022/03/07 04:34:03;;;;;;;6.80;2.42;;;;;;;-0.64;56.76;98637.88;5059320;28;20037;-89
2022/03/07 04:36:28;;;;;;;5.70;2.50;;;;;;;-0.52;56.23;98643.25;5031869;28;20024;-89
2022/03/07 04:38:54;;;;;;;8.25;2.67;;;;;;;-0.46;56.70;98632.31;5049193;28;20105;-88
2022/03/07 04:41:20;;;;;;;10.35;2.67;;;;;;;-0.49;56.71;98631.41;5059713;28;20036;-91
2022/03/07 04:43:45;;;;;;;7.32;3.28;;;;;;;-0.48;56.71;98628.03;5041054;28;20116;-90
2022/03/07 04:46:11;;;;;;;11.43;4.65;;;;;;;-0.51;56.88;98641.56;5056755;28;20037;-90
2022/03/07 04:48:37;;;;;;;6.55;2.85;;;;;;;-0.47;56.33;98628.06;5054489;28;20075;-89
2022/03/07 04:51:02;;;;;;;6.97;3.03;;;;;;;-0.46;56.58;98626.38;5054857;28;20036;-91
2022/03/07 04:53:28;;;;;;;8.30;2.45;;;;;;;-0.50;56.55;98625.47;5038752;28;20142;-91
2022/03/07 04:55:54;;;;;;;5.78;2.47;;;;;;;-0.50;56.12;98622.91;5031699;28;20042;-89
2022/03/07 04:58:20;;;;;;;7.60;2.50;;;;;;;-0.48;56.42;98635.69;5040706;28;20033;-88
2022/03/07 05:00:45;;;;;;;8.52;2.25;;;;;;;-0.53;56.81;98633.88;5032970;28;20838;-90
2022/03/07 05:03:11;;;;;;;6.65;2.25;;;;;;;-0.52;56.38;98627.97;5046250;28;20487;-91
2022/03/07 05:05:37;;;;;;;9.65;2.65;;;;;;;-0.49;56.21;98639.91;5054560;28;20188;-91
2022/03/07 05:08:03;;;;;;;6.55;2.38;;;;;;;-0.47;56.58;98629.75;5062457;28;20056;-90
2022/03/07 05:10:28;;;;;;;5.15;2.50;;;;;;;-0.51;56.47;98627.13;5065198;28;20517;-90
2022/03/07 05:12:54;;;;;;;5.68;2.45;;;;;;;-0.49;56.65;98617.00;5078779;28;20044;-90
2022/03/07 05:15:20;;;;;;;9.05;2.65;;;;;;;-0.42;56.65;98628.16;5075529;28;20442;-90
2022/03/07 05:17:48;;;;;;;9.60;2.40;;;;;;;-0.42;56.38;98629.03;5065485;28;20055;-90
2022/03/07 05:20:15;;;;;;;11.13;3.13;;;;;;;-0.38;56.58;98622.31;5062571;28;20040;-90
2022/03/07 05:22:41;;;;;;;6.13;2.88;;;;;;;-0.42;56.76;98623.94;5039871;28;20060;-91
2022/03/07 05:25:08;;;;;;;9.82;2.50;;;;;;;-0.39;56.24;98624.00;5033353;28;20045;-91
2022/03/07 05:27:34;;;;;;;10.80;5.18;;;;;;;-0.45;56.59;98628.13;5071680;28;20419;-90
2022/03/07 05:30:00;;;;;;;9.18;3.05;;;;;;;-0.42;56.91;98621.38;5058227;28;20036;-90
2022/03/07 05:32:25;;;;;;;7.28;2.78;;;;;;;-0.34;56.52;98619.00;5041194;28;20041;-90
2022/03/07 05:34:51;;;;;;;9.23;3.17;;;;;;;-0.28;56.29;98621.69;5062642;28;20032;-90
2022/03/07 05:37:17;;;;;;;9.25;3.15;;;;;;;-0.24;56.26;98628.59;5033546;28;20049;-91
2022/03/07 05:39:42;;;;;;;6.93;2.58;;;;;;;-0.28;56.23;98626.78;5059308;28;20033;-90
2022/03/07 05:42:08;;;;;;;11.02;2.65;;;;;;;-0.27;55.90;98626.00;5045297;28;20041;-90
2022/03/07 05:44:34;;;;;;;10.35;2.80;;;;;;;-0.24;55.91;98618.38;5063811;28;20036;-90
2022/03/07 05:46:59;;;;;;;7.85;3.30;;;;;;;-0.29;56.27;98622.53;5048691;28;20036;-91
2022/03/07 05:49:25;;;;;;;7.38;2.60;;;;;;;-0.28;56.58;98622.53;5083623;28;20020;-90
2022/03/07 05:51:51;;;;;;;7.85;2.55;;;;;;;-0.22;56.27;98626.09;5088454;28;20437;-90
2022/03/07 05:54:19;;;;;;;7.32;2.35;;;;;;;-0.23;56.39;98615.00;5052353;28;20099;-91
2022/03/07 05:56:45;;;;;;;9.32;2.40;;;;;;;-0.21;56.52;98618.47;5038068;28;20045;-89
2022/03/07 05:59:11;;;;;;;10.00;2.60;;;;;;;-0.15;56.08;98625.38;5029147;28;20040;-93
2022/03/07 06:01:38;;;;;;;9.32;2.53;;;;;;;-0.22;56.25;98626.09;5048394;28;20052;-91
2022/03/07 06:04:04;;;;;;;9.73;2.40;;;;;;;-0.12;55.98;98626.31;5041984;28;20025;-93
2022/03/07 06:06:30;;;;;;;6.95;2.38;;;;;;;-0.03;55.63;98623.97;5037429;28;20083;-90
2022/03/07 06:08:55;;;;;;;4.60;2.28;;;;;;;0.01;55.57;98624.03;5039529;28;20048;-90
2022/03/07 06:11:21;;;;;;;8.55;3.00;;;;;;;0.03;55.78;98635.09;5027023;28;20037;-90
2022/03/07 06:13:47;;;;;;;10.05;4.05;;;;;;;0.03;55.53;98620.66;5020422;28;20057;-90
2022/03/07 06:16:13;;;;;;;8.65;2.75;;;;;;;-0.02;55.45;98628.22;5035529;28;20052;-89
2022/03/07 06:18:38;;;;;;;6.63;2.50;;;;;;;0.09;55.60;98627.56;5018643;28;20045;-90
2022/03/07 06:21:05;;;;;;;7.70;2.72;;;;;;;-0.01;55.67;98627.38;5012899;28;20044;-91
2022/03/07 06:23:31;;;;;;;;;;;;;;;0.05;56.11;98626.69;5030417;28;20059;-89
2022/03/07 06:25:57;;;;;;;6.82;2.72;;;;;;;0.02;55.78;98624.06;5056613;28;19896;-89
2022/03/07 06:28:23;;;;;;;7.93;2.55;;;;;;;0.13;55.62;98620.03;5024838;28;20025;-90
2022/03/07 06:30:49;;;;;;;9.57;3.65;;;;;;;0.22;55.10;98630.41;5037110;28;20078;-89
2022/03/07 06:33:16;;;;;;;10.68;2.83;;;;;;;0.20;55.02;98631.22;5036104;28;20509;-89
2022/03/07 06:35:42;;;;;;;6.90;2.45;;;;;;;0.23;54.85;98618.56;5049640;28;20139;-89
2022/03/07 06:38:08;;;;;;;12.75;2.72;;;;;;;0.39;54.96;98620.56;5029906;28;20547;-90
2022/03/07 06:40:34;;;;;;;10.23;2.90;;;;;;;0.41;54.66;98626.56;5049040;28;20081;-91
2022/03/07 06:43:01;;;;;;;8.18;3.75;;;;;;;0.49;54.44;98630.09;5039399;28;20033;-91
2022/03/07 06:45:30;;;;;;;5.32;2.25;;;;;;;0.66;53.93;98627.03;5074970;28;20036;-90
2022/03/07 06:47:57;;;;;;;10.30;2.50;;;;;;;0.71;53.39;98620.31;5024723;28;20512;-92
2022/03/07 06:50:23;;;;;;;6.22;2.13;;;;;;;0.67;53.65;98623.63;5030273;28;20045;-91
2022/03/07 06:52:49;;;;;;;6.43;2.20;;;;;;;0.62;53.82;98631.19;5000164;28;20044;-90
2022/03/07 06:55:15;;;;;;;8.57;2.92;;;;;;;0.57;54.21;98631.97;5015597;28;20083;-90
2022/03/07 06:57:41;;;;;;;11.35;3.05;;;;;;;0.54;53.63;98627.63;5037396;28;20091;-91
2022/03/07 07:00:10;;;;;;;6.50;2.33;;;;;;;0.52;54.16;98638.66;5023807;28;20047;-91
2022/03/07 07:02:35;;;;;;;5.53;2.35;;;;;;;0.63;54.19;98638.03;5045377;28;20036;-92
2022/03/07 07:05:02;;;;;;;10.15;2.47;;;;;;;0.63;54.22;98632.06;5041376;28;20063;-91
2022/03/07 07:07:30;;;;;;;29.38;3.63;;;;;;;0.70;53.72;98639.00;5019594;28;20047;-92
2022/03/07 07:09:57;;;;;;;16.25;3.17;;;;;;;0.65;53.90;98636.38;5072515;28;20061;-90
2022/03/07 07:12:23;;;;;;;12.35;2.78;;;;;;;0.72;53.96;98643.28;5055963;28;20013;-92
2022/03/07 07:14:49;;;;;;;9.25;2.83;;;;;;;0.81;53.57;98632.41;5031611;28;20055;-91
2022/03/07 07:17:16;;;;;;;11.40;2.85;;;;;;;0.79;53.24;98626.41;5031858;28;20048;-91
2022/03/07 07:19:42;;;;;;;9.80;2.35;;;;;;;0.86;53.25;98624.81;5072539;28;20549;-90
2022/03/07 07:22:07;;;;;;;5.20;2.22;;;;;;;0.96;52.76;98625.03;5037830;28;20037;-90
2022/03/07 07:24:33;;;;;;;11.00;2.78;;;;;;;0.94;53.07;98636.03;5020641;28;20083;-90
2022/03/07 07:26:59;;;;;;;9.77;2.40;;;;;;;0.98;52.78;98625.91;5013805;28;20460;-91
2022/03/07 07:29:25;;;;;;;7.78;2.58;;;;;;;1.06;52.37;98640.50;5039064;28;20107;-91
2022/03/07 07:31:53;;;;;;;13.30;5.70;;;;;;;1.06;52.32;98627.75;5036911;28;20039;-91
2022/03/07 07:34:20;;;;;;;8.20;3.17;;;;;;;1.04;52.58;98631.94;5052827;28;20056;-91
2022/03/07 07:36:46;;;;;;;9.15;3.30;;;;;;;0.97;52.49;98626.75;5055180;28;20093;-91
2022/03/07 07:39:12;;;;;;;8.55;2.67;;;;;;;1.10;52.56;98642.25;5035266;28;20104;-91
2022/03/07 07:41:38;;;;;;;11.63;3.40;;;;;;;1.05;52.63;98626.84;5046525;28;20045;-90
2022/03/07 07:44:04;;;;;;;7.90;3.28;;;;;;;1.09;52.58;98628.63;5053958;28;20492;-91
2022/03/07 07:46:29;;;;;;;7.20;2.45;;;;;;;1.28;51.67;98632.34;5046898;28;20067;-90
2022/03/07 07:48:55;;;;;;;6.57;3.20;;;;;;;1.23;51.85;98639.09;5020311;28;20017;-91
2022/03/07 07:51:21;;;;;;;5.15;2.30;;;;;;;1.27;52.21;98639.16;5010918;28;20009;-91
2022/03/07 07:53:47;;;;;;;5.03;2.70;;;;;;;1.16;51.81;98635.56;5017497;28;20062;-90
2022/03/07 07:56:13;;;;;;;6.32;2.50;;;;;;;1.27;52.06;98645.97;5028738;28;20051;-90
2022/03/07 07:58:39;;;;;;;6.03;2.42;;;;;;;1.21;52.15;98628.84;5048791;28;20076;-90
2022/03/07 08:01:04;;;;;;;5.32;2.60;;;;;;;1.31;51.75;98632.41;5032535;28;20408;-90
2022/03/07 08:03:31;;;;;;;6.93;2.40;;;;;;;1.27;52.27;98636.59;5025912;28;20045;-90
2022/03/07 08:05:57;;;;;;;6.57;2.60;;;;;;;1.27;51.74;98633.19;5033272;28;20048;-89
2022/03/07 08:08:22;;;;;;;;;;;;;;;1.27;52.40;98640.84;5035186;28;20037;-91
2022/03/07 08:10:48;;;;;;;8.40;2.60;;;;;;;1.25;51.84;98634.88;5044360;28;19948;-90
2022/03/07 08:13:15;;;;;;;9.82;2.40;;;;;;;1.22;52.12;98635.66;5029580;28;20057;-89
2022/03/07 08:15:41;;;;;;;7.45;2.70;;;;;;;1.26;51.44;98634.88;5032355;28;20044;-90
2022/03/07 08:18:07;;;;;;;9.05;2.40;;;;;;;1.42;51.38;98628.34;5052221;28;20048;-90
2022/03/07 08:20:33;;;;;;;;;;;;;;;1.48;50.55;98633.53;5038404;28;20024;-89
2022/03/07 08:23:00;;;;;;;7.15;1.95;;;;;;;1.45;50.73;98633.47;5050758;28;19923;-92
2022/03/07 08:25:26;;;;;;;5.47;2.30;;;;;;;1.57;51.06;98631.97;5026655;28;20029;-90
2022/03/07 08:27:53;;;;;;;5.75;2.15;;;;;;;1.55;50.15;98618.28;5014975;23;20058;-91
2022/03/07 08:30:23;;;;;;;6.55;1.80;;;;;;;1.33;50.31;98617.97;4995306;28;20042;-91
2022/03/07 08:32:58;;;;;;;6.38;1.90;;;;;;;1.38;50.38;98618.91;5012331;28;20065;-90
2022/03/07 08:35:28;;;;;;;5.50;1.92;;;;;;;1.53;50.17;98616.56;4965282;28;20042;-89
2022/03/07 08:37:54;;;;;;;5.80;1.75;;;;;;;1.39;50.29;98605.28;5109713;23;20119;-89
2022/03/07 08:40:21;;;;;;;3.85;1.70;;;;;;;1.35;50.62;98613.75;4993443;28;20050;-91
2022/03/07 08:43:04;;;;;;;13.80;2.95;;;;;;;1.35;50.29;98603.53;5007452;28;20097;-92
2022/03/07 08:45:33;;;;;;;4.05;1.52;;;;;;;1.65;50.37;98630.34;4993494;23;20058;-93
2022/03/07 08:47:59;;;;;;;17.85;1.60;;;;;;;1.48;50.07;98625.03;4982023;28;20045;-91
2022/03/07 08:50:25;;;;;;;3.70;1.65;;;;;;;1.32;50.58;98621.34;4994809;28;20042;-90
2022/03/07 08:52:51;;;;;;;5.60;1.63;;;;;;;1.36;50.80;98625.66;5012898;28;20397;-90
2022/03/07 08:55:17;;;;;;;12.70;6.38;;;;;;;1.46;50.17;98630.09;5010323;28;20061;-92
2022/03/07 08:57:42;;;;;;;4.38;2.42;;;;;;;1.45;50.44;98614.75;5027405;28;20042;-91
2022/03/07 09:00:10;;;;;;;8.32;1.63;;;;;;;1.51;49.75;98622.50;4989207;28;20038;-88
2022/03/07 09:02:36;;;;;;;8.45;3.28;;;;;;;1.50;49.58;98615.66;4995356;28;20393;-87
2022/03/07 09:05:01;;;;;;;7.00;2.95;;;;;;;1.58;49.85;98628.56;5001140;28;20034;-83
2022/03/07 09:07:28;;;;;;;6.90;2.38;;;;;;;1.70;49.62;98642.41;5004839;28;20482;-87
2022/03/07 09:09:57;;;;;;;13.52;1.65;;;;;;;1.52;50.14;98635.31;4999606;28;20042;-89
2022/03/07 09:12:27;;;;;;;3.80;1.55;;;;;;;1.49;50.21;98637.81;5009504;28;20041;-88
2022/03/07 09:14:55;;;;;;;3.03;1.40;;;;;;;1.48;50.15;98645.47;4973901;28;20054;-88
2022/03/07 09:17:21;;;;;;;6.97;2.00;;;;;;;1.48;49.87;98636.09;5007039;28;20034;-86
2022/03/07 09:19:47;;;;;;;7.20;2.13;;;;;;;1.45;50.54;98642.84;5009660;28;20069;-89
2022/03/07 09:22:12;;;;;;;;;;;;;;;1.46;49.68;98645.41;5006663;28;20046;-87
2022/03/07 09:24:38;;;;;;;5.10;1.67;;;;;;;1.42;50.03;98643.69;4973110;28;20400;-86
